createdAt,value
2018-06-14T00:01:57.892Z,76.15
2018-06-14T00:04:26.492Z,76.94
2018-06-14T00:06:54.865Z,76.55
2018-06-14T00:09:23.360Z,77.16
2018-06-14T00:11:51.874Z,77.00
2018-06-14T00:14:20.378Z,77.01
2018-06-14T00:16:49.121Z,78.23
2018-06-14T00:19:17.642Z,76.93
2018-06-14T00:21:46.056Z,77.27
2018-06-14T00:24:14.640Z,77.13
2018-06-14T00:26:43.317Z,77.86
2018-06-14T00:29:11.728Z,78.14
2018-06-14T00:31:40.521Z,77.94
2018-06-14T00:34:09.243Z,78.61
2018-06-14T00:36:37.943Z,79.04
2018-06-14T00:39:07.699Z,78.18
2018-06-14T00:41:36.269Z,78.77
2018-06-14T00:44:05.060Z,77.67
2018-06-14T00:46:33.454Z,78.27
2018-06-14T00:49:02.084Z,78.45
2018-06-14T00:51:30.640Z,77.73
2018-06-14T00:53:59.196Z,77.67
2018-06-14T00:56:27.959Z,76.75
2018-06-14T00:58:56.365Z,76.50
2018-06-14T01:01:24.801Z,76.38
2018-06-14T01:03:53.270Z,76.36
2018-06-14T01:06:21.657Z,75.82
2018-06-14T01:08:49.918Z,76.84
2018-06-14T01:11:18.381Z,76.80
2018-06-14T01:13:47.078Z,76.50
2018-06-14T01:16:15.603Z,75.87
2018-06-14T01:18:44.121Z,75.85
2018-06-14T01:21:13.389Z,75.66
2018-06-14T01:23:42.308Z,76.05
2018-06-14T01:26:10.754Z,75.18
2018-06-14T01:28:39.675Z,75.18
2018-06-14T01:31:08.295Z,74.95
2018-06-14T01:33:36.741Z,74.66
2018-06-14T01:36:05.508Z,75.05
2018-06-14T01:38:34.431Z,75.10
2018-06-14T01:41:02.920Z,74.47
2018-06-14T01:43:31.448Z,74.51
2018-06-14T01:45:59.822Z,73.91
2018-06-14T01:48:28.373Z,73.70
2018-06-14T01:50:56.817Z,74.22
2018-06-14T01:53:25.352Z,73.65
2018-06-14T01:55:53.880Z,73.71
2018-06-14T01:58:22.533Z,73.61
2018-06-14T02:00:50.929Z,74.02
2018-06-14T02:03:19.631Z,73.48
2018-06-14T02:05:48.012Z,74.13
2018-06-14T02:08:16.385Z,73.74
2018-06-14T02:10:45.155Z,73.23
2018-06-14T02:13:13.567Z,73.33
2018-06-14T02:15:42.273Z,73.36
2018-06-14T02:18:10.727Z,73.83
2018-06-14T02:20:39.329Z,73.56
2018-06-14T02:23:08.207Z,73.67
2018-06-14T02:25:36.777Z,73.87
2018-06-14T02:28:05.212Z,73.69
2018-06-14T02:30:33.584Z,73.52
2018-06-14T02:33:02.140Z,73.80
2018-06-14T02:35:30.603Z,73.67
2018-06-14T02:37:59.231Z,73.42
2018-06-14T02:40:27.792Z,73.29
2018-06-14T02:42:56.684Z,73.76
2018-06-14T02:45:25.151Z,73.41
2018-06-14T02:47:53.597Z,73.28
2018-06-14T02:50:21.941Z,73.74
2018-06-14T02:52:57.185Z,74.24
2018-06-14T02:55:25.689Z,74.04
2018-06-14T02:57:54.064Z,74.36
2018-06-14T03:00:22.572Z,74.20
2018-06-14T03:02:51.091Z,74.52
2018-06-14T03:05:19.797Z,73.78
2018-06-14T03:07:48.412Z,74.04
2018-06-14T03:10:16.772Z,74.46
2018-06-14T03:12:45.248Z,74.79
2018-06-14T03:15:13.664Z,74.34
2018-06-14T03:17:41.987Z,74.55
2018-06-14T03:20:10.503Z,74.19
2018-06-14T03:22:39.130Z,74.25
2018-06-14T03:25:07.977Z,74.73
2018-06-14T03:27:36.554Z,74.56
2018-06-14T03:30:05.578Z,74.25
2018-06-14T03:32:34.090Z,74.20
2018-06-14T03:35:02.531Z,74.14
2018-06-14T03:37:31.369Z,73.54
2018-06-14T03:39:59.945Z,73.53
2018-06-14T03:42:28.532Z,73.35
2018-06-14T03:44:57.481Z,73.75
2018-06-14T03:47:25.973Z,73.07
2018-06-14T03:49:54.501Z,72.78
2018-06-14T03:52:23.187Z,72.94
2018-06-14T03:54:51.828Z,72.13
2018-06-14T03:57:20.220Z,72.52
2018-06-14T03:59:49.185Z,72.27
2018-06-14T04:02:17.736Z,71.96
2018-06-14T04:04:46.499Z,71.56
2018-06-14T04:07:15.133Z,71.50
2018-06-14T04:09:43.465Z,70.42
2018-06-14T04:12:12.026Z,70.68
2018-06-14T04:14:40.735Z,70.55
2018-06-14T04:17:09.340Z,70.09
2018-06-14T04:19:37.815Z,70.19
2018-06-14T04:22:06.417Z,68.76
2018-06-14T04:24:34.868Z,69.20
2018-06-14T04:27:03.449Z,69.39
2018-06-14T04:29:31.944Z,68.83
2018-06-14T04:32:00.511Z,69.55
2018-06-14T04:34:29.144Z,69.32
2018-06-14T04:36:57.900Z,69.38
2018-06-14T04:39:26.626Z,69.15
2018-06-14T04:41:55.568Z,68.12
2018-06-14T04:44:23.950Z,68.00
2018-06-14T04:46:52.716Z,68.22
2018-06-14T04:49:21.150Z,67.18
2018-06-14T04:51:49.894Z,67.00
2018-06-14T04:54:18.543Z,66.91
2018-06-14T04:56:47.442Z,65.62
2018-06-14T04:59:15.728Z,65.79
2018-06-14T05:01:43.992Z,65.68
2018-06-14T05:04:12.532Z,65.40
2018-06-14T05:06:41.275Z,65.34
2018-06-14T05:09:12.598Z,64.95
2018-06-14T05:11:41.623Z,64.84
2018-06-14T05:14:10.294Z,64.64
2018-06-14T05:16:39.088Z,64.85
2018-06-14T05:19:07.630Z,64.67
2018-06-14T05:21:36.133Z,64.47
2018-06-14T05:24:04.745Z,63.93
2018-06-14T05:26:33.509Z,63.97
2018-06-14T05:29:03.046Z,63.35
2018-06-14T05:31:31.447Z,63.05
2018-06-14T05:33:59.966Z,63.28
2018-06-14T05:36:28.756Z,63.10
2018-06-14T05:39:01.195Z,62.89
2018-06-14T05:41:29.983Z,62.24
2018-06-14T05:43:58.810Z,62.77
2018-06-14T05:46:27.330Z,62.61
2018-06-14T05:48:56.140Z,61.69
2018-06-14T05:51:24.566Z,62.03
2018-06-14T05:53:53.569Z,61.00
2018-06-14T05:56:22.627Z,60.93
2018-06-14T05:58:51.308Z,61.61
2018-06-14T06:01:19.813Z,60.97
2018-06-14T06:04:05.302Z,61.23
2018-06-14T06:06:34.491Z,61.64
2018-06-14T06:09:03.308Z,61.55
2018-06-14T06:11:31.986Z,61.48
2018-06-14T06:14:00.835Z,62.07
2018-06-14T06:16:29.800Z,61.82
2018-06-14T06:18:58.361Z,61.52
2018-06-14T06:21:27.202Z,61.90
2018-06-14T06:23:55.672Z,61.62
2018-06-14T06:26:24.475Z,61.21
2018-06-14T06:28:54.121Z,60.80
2018-06-14T06:31:23.032Z,59.88
2018-06-14T06:33:51.491Z,60.12
2018-06-14T06:36:20.372Z,59.58
2018-06-14T06:38:48.924Z,59.38
2018-06-14T06:41:17.637Z,59.17
2018-06-14T06:43:46.428Z,59.04
2018-06-14T06:46:15.268Z,58.73
2018-06-14T06:48:43.796Z,57.66
2018-06-14T06:51:12.453Z,58.29
2018-06-14T06:53:41.178Z,57.77
2018-06-14T06:56:09.662Z,57.97
2018-06-14T06:58:38.170Z,57.27
2018-06-14T07:01:06.753Z,57.27
2018-06-14T07:03:35.405Z,56.63
2018-06-14T07:06:04.328Z,56.50
2018-06-14T07:08:33.105Z,56.28
2018-06-14T07:11:01.715Z,56.54
2018-06-14T07:13:30.547Z,55.96
2018-06-14T07:15:59.145Z,55.82
2018-06-14T07:18:27.621Z,56.34
2018-06-14T07:20:56.250Z,56.54
2018-06-14T07:23:24.692Z,55.91
2018-06-14T07:25:53.427Z,55.77
2018-06-14T07:28:21.874Z,56.00
2018-06-14T07:30:50.393Z,55.50
2018-06-14T07:33:18.856Z,56.14
2018-06-14T07:35:47.284Z,55.40
2018-06-14T07:38:15.665Z,55.22
2018-06-14T07:40:44.399Z,54.91
2018-06-14T07:43:12.893Z,56.20
2018-06-14T07:45:41.277Z,55.35
2018-06-14T07:48:09.623Z,55.51
2018-06-14T07:50:38.122Z,54.97
2018-06-14T07:53:06.875Z,55.56
2018-06-14T07:55:35.471Z,55.11
2018-06-14T07:58:04.520Z,54.47
2018-06-14T08:00:33.165Z,55.00
2018-06-14T08:03:01.709Z,54.64
2018-06-14T08:05:30.322Z,55.81
2018-06-14T08:07:59.247Z,55.41
2018-06-14T08:10:27.577Z,55.47
2018-06-14T08:12:55.931Z,55.43
2018-06-14T08:15:24.510Z,55.12
2018-06-14T08:17:53.065Z,54.09
2018-06-14T08:20:21.415Z,54.95
2018-06-14T08:22:50.416Z,55.24
2018-06-14T08:25:18.724Z,53.26
2018-06-14T08:27:47.241Z,53.75
2018-06-14T08:30:15.659Z,53.44
2018-06-14T08:32:44.482Z,53.31
2018-06-14T08:35:14.315Z,52.86
2018-06-14T08:37:43.064Z,52.16
2018-06-14T08:40:11.393Z,50.99
2018-06-14T08:42:40.218Z,50.53
2018-06-14T08:45:08.748Z,51.80
2018-06-14T08:47:37.400Z,50.40
2018-06-14T08:50:05.912Z,50.95
2018-06-14T08:52:34.455Z,51.30
2018-06-14T08:55:02.980Z,50.65
2018-06-14T08:57:31.488Z,51.02
2018-06-14T08:59:59.957Z,50.60
2018-06-14T09:02:28.515Z,50.67
2018-06-14T09:04:57.280Z,50.54
2018-06-14T09:07:25.619Z,48.50
2018-06-14T09:09:54.154Z,47.89
2018-06-14T09:12:22.916Z,46.22
2018-06-14T09:14:51.478Z,45.60
2018-06-14T09:17:20.179Z,45.49
2018-06-14T09:19:48.624Z,45.57
2018-06-14T09:22:17.582Z,45.57
2018-06-14T09:24:45.896Z,45.91
2018-06-14T09:27:14.263Z,44.88
2018-06-14T09:29:42.829Z,45.70
2018-06-14T09:32:11.071Z,46.43
2018-06-14T09:34:39.700Z,45.28
2018-06-14T09:37:08.309Z,44.67
2018-06-14T09:39:36.869Z,45.17
2018-06-14T09:42:05.704Z,44.36
2018-06-14T09:44:34.567Z,44.88
2018-06-14T09:47:03.115Z,45.21
2018-06-14T09:49:31.350Z,45.20
2018-06-14T09:51:59.741Z,45.41
2018-06-14T09:54:28.342Z,45.34
2018-06-14T09:56:56.802Z,45.61
2018-06-14T09:59:25.281Z,46.68
2018-06-14T10:01:54.059Z,47.56
2018-06-14T10:04:22.809Z,47.38
2018-06-14T10:06:51.443Z,47.21
2018-06-14T10:09:20.051Z,45.75
2018-06-14T10:11:48.849Z,45.92
2018-06-14T10:14:17.279Z,46.07
2018-06-14T10:16:45.874Z,44.18
2018-06-14T10:19:14.432Z,43.67
2018-06-14T10:21:42.944Z,43.38
2018-06-14T10:24:11.477Z,41.65
2018-06-14T10:26:39.915Z,42.11
2018-06-14T10:29:08.490Z,41.99
2018-06-14T10:31:37.069Z,41.43
2018-06-14T10:34:05.985Z,41.75
2018-06-14T10:36:34.541Z,43.24
2018-06-14T10:39:04.500Z,43.38
2018-06-14T10:41:33.058Z,43.97
2018-06-14T10:44:01.636Z,44.26
2018-06-14T10:46:30.485Z,42.97
2018-06-14T10:48:58.967Z,43.79
2018-06-14T10:51:27.585Z,43.91
2018-06-14T10:53:56.189Z,43.62
2018-06-14T10:56:24.659Z,43.54
2018-06-14T10:58:53.203Z,43.36
2018-06-14T11:01:21.739Z,42.73
2018-06-14T11:03:50.097Z,43.90
2018-06-14T11:06:19.047Z,43.72
2018-06-14T11:08:47.350Z,43.87
2018-06-14T11:11:15.877Z,43.67
2018-06-14T11:13:44.358Z,42.82
2018-06-14T11:16:12.938Z,42.46
2018-06-14T11:18:41.616Z,41.98
2018-06-14T11:21:10.194Z,42.02
2018-06-14T11:23:38.965Z,41.28
2018-06-14T11:26:07.558Z,42.81
2018-06-14T11:28:36.452Z,42.71
2018-06-14T11:31:05.036Z,42.15
2018-06-14T11:33:33.550Z,41.73
2018-06-14T11:36:02.041Z,41.63
2018-06-14T11:38:30.512Z,41.86
2018-06-14T11:40:59.201Z,42.66
2018-06-14T11:43:27.783Z,40.74
2018-06-14T11:45:56.433Z,41.16
2018-06-14T11:48:25.075Z,41.03
2018-06-14T11:50:53.728Z,41.72
2018-06-14T11:53:22.455Z,42.04
2018-06-14T11:55:50.961Z,40.97
2018-06-14T11:58:20.146Z,40.42
2018-06-14T12:00:48.793Z,39.90
2018-06-14T12:03:17.381Z,41.59
2018-06-14T12:05:46.133Z,40.65
2018-06-14T12:08:14.885Z,40.17
2018-06-14T12:10:43.584Z,40.52
2018-06-14T12:13:12.351Z,39.64
2018-06-14T12:15:40.743Z,40.29
2018-06-14T12:18:09.347Z,40.79
2018-06-14T12:20:37.931Z,39.72
2018-06-14T12:23:06.568Z,40.74
2018-06-14T12:25:35.086Z,40.60
2018-06-14T12:28:03.687Z,39.77
2018-06-14T12:30:32.047Z,39.65
2018-06-14T12:33:00.905Z,39.26
2018-06-14T12:35:29.511Z,40.36
2018-06-14T12:37:57.906Z,41.70
2018-06-14T12:40:26.615Z,40.84
2018-06-14T12:42:55.132Z,41.33
2018-06-14T12:45:23.514Z,40.90
2018-06-14T12:47:52.098Z,40.01
2018-06-14T12:50:20.795Z,41.06
2018-06-14T12:52:49.208Z,39.87
2018-06-14T12:55:17.872Z,40.75
2018-06-14T12:57:46.410Z,40.55
2018-06-14T13:00:15.052Z,40.99
2018-06-14T13:02:43.388Z,39.94
2018-06-14T13:05:11.986Z,40.54
2018-06-14T13:07:40.873Z,41.34
2018-06-14T13:10:09.324Z,40.27
2018-06-14T13:12:37.975Z,40.12
2018-06-14T13:15:06.424Z,40.63
2018-06-14T13:17:34.946Z,40.96
2018-06-14T13:20:03.507Z,40.92
2018-06-14T13:22:32.014Z,42.18
2018-06-14T13:25:00.594Z,42.26
2018-06-14T13:27:29.201Z,42.15
2018-06-14T13:29:57.647Z,42.51
2018-06-14T13:32:28.962Z,42.85
2018-06-14T13:34:57.451Z,42.50
2018-06-14T13:37:26.031Z,43.01
2018-06-14T13:39:54.520Z,43.95
2018-06-14T13:42:23.056Z,43.68
2018-06-14T13:44:51.753Z,44.05
2018-06-14T13:47:20.226Z,44.68
2018-06-14T13:49:48.856Z,45.17
2018-06-14T13:52:17.561Z,44.95
2018-06-14T13:54:46.185Z,46.07
2018-06-14T13:57:14.791Z,46.14
2018-06-14T13:59:43.231Z,47.17
2018-06-14T14:02:12.002Z,48.24
2018-06-14T14:04:41.028Z,46.96
2018-06-14T14:07:09.584Z,47.72
2018-06-14T14:09:37.951Z,47.25
2018-06-14T14:12:06.467Z,47.92
2018-06-14T14:14:35.416Z,48.84
2018-06-14T14:17:04.041Z,50.27
2018-06-14T14:19:32.684Z,51.11
2018-06-14T14:22:01.360Z,51.50
2018-06-14T14:24:30.160Z,51.78
2018-06-14T14:26:58.636Z,52.35
2018-06-14T14:29:26.883Z,52.81
2018-06-14T14:31:55.420Z,54.17
2018-06-14T14:34:24.003Z,55.71
2018-06-14T14:36:52.435Z,56.11
2018-06-14T14:39:21.039Z,57.13
2018-06-14T14:41:49.819Z,57.83
2018-06-14T14:44:18.340Z,58.86
2018-06-14T14:46:46.703Z,59.39
2018-06-14T14:49:15.381Z,60.15
2018-06-14T14:51:44.157Z,60.96
2018-06-14T14:54:12.696Z,60.20
2018-06-14T14:56:41.140Z,60.96
2018-06-14T14:59:09.913Z,62.08
2018-06-14T15:01:38.597Z,61.85
2018-06-14T15:04:06.989Z,64.15
2018-06-14T15:06:35.639Z,63.81
2018-06-14T15:09:06.685Z,64.50
2018-06-14T15:11:35.428Z,66.16
2018-06-14T15:14:04.042Z,66.18
2018-06-14T15:16:32.707Z,67.77
2018-06-14T15:19:01.125Z,67.61
2018-06-14T15:21:29.992Z,66.99
2018-06-14T15:23:58.471Z,67.82
2018-06-14T15:28:54.771Z,67.22
2018-06-14T15:31:23.345Z,68.14
2018-06-14T15:33:51.885Z,68.28
2018-06-14T15:36:20.799Z,69.82
2018-06-14T15:38:49.356Z,70.36
2018-06-14T15:41:17.883Z,71.12
2018-06-14T15:43:46.344Z,71.77
2018-06-14T15:46:14.985Z,72.42
2018-06-14T15:48:43.478Z,72.17
2018-06-14T15:51:12.195Z,72.25
2018-06-14T15:53:40.752Z,73.16
2018-06-14T15:56:41.124Z,73.20
2018-06-14T15:59:15.441Z,73.91
2018-06-14T16:01:43.909Z,73.73
2018-06-14T16:04:12.458Z,73.83
2018-06-14T16:06:41.047Z,73.52
2018-06-14T16:09:10.630Z,74.78
2018-06-14T16:11:39.228Z,74.81
2018-06-14T16:14:07.822Z,74.51
2018-06-14T16:16:36.498Z,74.91
2018-06-14T16:19:05.600Z,74.33
2018-06-14T16:21:34.084Z,75.05
2018-06-14T16:24:02.905Z,74.72
2018-06-14T16:26:31.712Z,74.19
2018-06-14T16:29:00.240Z,74.44
2018-06-14T16:31:28.583Z,73.70
2018-06-14T16:33:57.307Z,73.99
2018-06-14T16:36:26.062Z,74.74
2018-06-14T16:38:54.678Z,73.53
2018-06-14T16:41:23.083Z,73.59
2018-06-14T16:43:51.622Z,74.43
2018-06-14T16:46:20.288Z,73.77
2018-06-14T16:48:48.795Z,74.51
2018-06-14T16:51:17.165Z,74.94
2018-06-14T16:53:45.774Z,73.46
2018-06-14T16:56:14.060Z,73.94
2018-06-14T16:58:42.707Z,74.36
2018-06-14T17:01:11.533Z,75.11
2018-06-14T17:03:39.906Z,74.74
2018-06-14T17:06:08.449Z,75.26
2018-06-14T17:08:37.270Z,75.00
2018-06-14T17:11:05.837Z,75.66
2018-06-14T17:13:34.371Z,75.29
2018-06-14T17:16:03.057Z,75.19
2018-06-14T17:18:31.527Z,75.36
2018-06-14T17:21:00.556Z,75.68
2018-06-14T17:23:29.505Z,75.54
2018-06-14T17:25:57.938Z,74.79
2018-06-14T17:28:26.435Z,74.61
2018-06-14T17:30:55.006Z,75.86
2018-06-14T17:33:23.629Z,75.58
2018-06-14T17:35:52.359Z,75.46
2018-06-14T17:38:20.780Z,74.34
2018-06-14T17:40:49.400Z,74.46
2018-06-14T17:43:18.027Z,73.49
2018-06-14T17:45:46.636Z,73.89
2018-06-14T17:48:15.297Z,73.85
2018-06-14T17:50:44.257Z,73.13
2018-06-14T17:53:13.098Z,72.99
2018-06-14T17:55:41.965Z,71.47
2018-06-14T17:58:10.653Z,71.85
2018-06-14T18:00:39.550Z,71.52
2018-06-14T18:03:07.950Z,72.31
2018-06-14T18:05:36.587Z,71.47
2018-06-14T18:08:05.241Z,71.15
2018-06-14T18:10:34.040Z,70.85
2018-06-14T18:13:02.686Z,70.86
2018-06-14T18:15:31.194Z,70.68
2018-06-14T18:17:59.535Z,71.41
2018-06-14T18:20:28.370Z,70.96
2018-06-14T18:22:56.732Z,71.41
2018-06-14T18:25:25.713Z,71.35
2018-06-14T18:27:54.329Z,72.37
2018-06-14T18:30:22.951Z,72.39
2018-06-14T18:32:51.807Z,71.73
2018-06-14T18:35:20.352Z,71.44
2018-06-14T18:37:48.829Z,72.80
2018-06-14T18:40:17.333Z,72.64
2018-06-14T18:42:46.244Z,73.35
2018-06-14T18:45:14.806Z,73.00
2018-06-14T18:47:43.372Z,73.50
2018-06-14T18:50:11.992Z,73.70
2018-06-14T18:52:40.735Z,73.34
2018-06-14T18:55:09.226Z,73.85
2018-06-14T18:57:37.946Z,74.13
2018-06-14T19:00:06.487Z,74.83
2018-06-14T19:02:34.941Z,74.50
2018-06-14T19:05:03.602Z,74.54
2018-06-14T19:07:31.936Z,74.46
2018-06-14T19:10:00.487Z,74.49
2018-06-14T19:12:29.053Z,74.87
2018-06-14T19:14:57.477Z,74.97
2018-06-14T19:17:26.264Z,75.04
2018-06-14T19:19:54.716Z,74.90
2018-06-14T19:22:23.698Z,75.56
2018-06-14T19:24:52.290Z,75.39
2018-06-14T19:27:20.752Z,75.15
2018-06-14T19:29:50.765Z,75.87
2018-06-14T19:32:19.445Z,75.84
2018-06-14T19:34:48.245Z,77.30
2018-06-14T19:37:17.049Z,79.16
2018-06-14T19:39:45.616Z,79.74
2018-06-14T19:42:14.788Z,80.35
2018-06-14T19:44:43.250Z,80.40
2018-06-14T19:47:11.874Z,81.22
2018-06-14T19:49:40.968Z,81.16
2018-06-14T19:52:09.459Z,81.18
2018-06-14T19:54:38.151Z,80.98
2018-06-14T19:57:06.812Z,81.32
2018-06-14T19:59:35.285Z,81.33
2018-06-14T20:02:03.849Z,80.96
2018-06-14T20:04:32.450Z,81.22
2018-06-14T20:07:01.434Z,81.93
2018-06-14T20:09:30.037Z,80.98
2018-06-14T20:11:58.718Z,81.89
2018-06-14T20:14:27.507Z,81.47
2018-06-14T20:16:56.157Z,82.24
2018-06-14T20:19:24.565Z,82.22
2018-06-14T20:21:53.288Z,82.19
2018-06-14T20:24:21.960Z,82.26
2018-06-14T20:26:50.883Z,82.22
2018-06-14T20:29:19.303Z,82.05
2018-06-14T20:31:48.042Z,82.71
2018-06-14T20:34:16.750Z,82.43
2018-06-14T20:36:45.462Z,82.09
2018-06-14T20:39:14.584Z,82.48
2018-06-14T20:41:43.179Z,81.70
2018-06-14T20:44:12.016Z,82.23
2018-06-14T20:46:40.743Z,81.35
2018-06-14T20:49:09.223Z,81.04
2018-06-14T20:51:37.820Z,81.75
2018-06-14T20:54:06.721Z,81.75
2018-06-14T20:56:35.190Z,81.13
2018-06-14T20:59:03.897Z,80.57
2018-06-14T21:01:32.570Z,81.75
2018-06-14T21:04:01.331Z,80.90
2018-06-14T21:06:29.927Z,81.83
2018-06-14T21:08:58.834Z,81.57
2018-06-14T21:11:27.607Z,81.34
2018-06-14T21:13:56.261Z,81.79
2018-06-14T21:16:24.966Z,81.30
2018-06-14T21:18:53.983Z,81.04
2018-06-14T21:21:22.551Z,80.97
2018-06-14T21:23:50.942Z,80.73
2018-06-14T21:26:19.699Z,80.70
2018-06-14T21:28:48.569Z,80.97
2018-06-14T21:31:17.109Z,80.80
2018-06-14T21:33:46.287Z,81.40
2018-06-14T21:36:15.100Z,81.13
2018-06-14T21:38:43.605Z,81.18
2018-06-14T21:41:12.411Z,80.36
2018-06-14T21:43:41.037Z,81.06
2018-06-14T21:46:09.557Z,81.10
2018-06-14T21:48:38.199Z,81.40
2018-06-14T21:51:06.645Z,81.68
2018-06-14T21:53:35.203Z,81.64
2018-06-14T21:56:03.854Z,81.64
2018-06-14T21:58:32.408Z,81.11
2018-06-14T22:01:01.006Z,81.45
2018-06-14T22:03:35.351Z,81.21
2018-06-14T22:06:03.909Z,82.16
2018-06-14T22:08:32.552Z,82.32
2018-06-14T22:11:01.102Z,81.53
2018-06-14T22:13:29.979Z,81.97
2018-06-14T22:15:58.587Z,81.19
2018-06-14T22:18:27.387Z,81.75
2018-06-14T22:20:55.869Z,81.42
2018-06-14T22:23:24.382Z,81.73
2018-06-14T22:25:52.855Z,82.21
2018-06-14T22:28:21.383Z,81.42
2018-06-14T22:30:49.999Z,81.62
2018-06-14T22:33:35.536Z,82.31
2018-06-14T22:36:04.057Z,82.23
2018-06-14T22:38:32.647Z,81.72
2018-06-14T22:41:01.252Z,81.79
2018-06-14T22:43:29.962Z,81.45
2018-06-14T22:45:58.679Z,81.19
2018-06-14T22:48:27.284Z,81.93
2018-06-14T22:51:12.749Z,82.01
2018-06-14T22:53:41.161Z,81.80
2018-06-14T22:56:09.617Z,81.75
2018-06-14T22:58:38.077Z,81.98
2018-06-14T23:01:39.779Z,81.89
2018-06-14T23:04:10.530Z,81.45
2018-06-14T23:06:38.958Z,82.16
2018-06-14T23:10:36.517Z,82.30
2018-06-14T23:13:05.881Z,81.47
2018-06-14T23:15:34.142Z,82.12
2018-06-14T23:18:02.778Z,81.54
2018-06-14T23:20:32.312Z,81.70
2018-06-14T23:23:01.325Z,82.44
2018-06-14T23:25:30.643Z,82.07
2018-06-14T23:27:59.336Z,82.79
2018-06-14T23:30:27.607Z,82.85
2018-06-14T23:32:56.107Z,81.51
2018-06-14T23:35:24.863Z,82.41
2018-06-14T23:37:53.524Z,82.47
2018-06-14T23:40:22.192Z,82.04
2018-06-14T23:42:50.972Z,82.03
2018-06-14T23:45:19.623Z,81.95
2018-06-14T23:47:48.218Z,81.93
2018-06-14T23:50:16.655Z,82.59
2018-06-14T23:52:45.380Z,82.25
2018-06-14T23:55:13.758Z,81.69
2018-06-14T23:57:42.046Z,81.64
